Time;durP1;ratioP1;P1;durP2;ratioP2;P2;SDS_P1;SDS_P2;PMS_P1;PMS_P2;Temp;Humidity;BMP_temperature;BMP_pressure;BME280_temperature;BME280_humidity;BME280_pressure;Samples;Min_cycle;Max_cycle;Signal;HPM_P1;HPM_P2
2021/04/06 00:00:41;;;;;;;4.70;1.50;;;5.10;99.90;;;;;;1839646;76;21345;-68
2021/04/06 00:03:12;;;;;;;3.70;1.57;;;5.20;99.90;;;;;;1832911;77;21340;-68
2021/04/06 00:05:41;;;;;;;4.25;2.02;;;5.10;99.90;;;;;;1839425;76;21215;-68
2021/04/06 00:08:10;;;;;;;1.98;1.57;;;5.20;99.90;;;;;;1842478;76;21522;-69
2021/04/06 00:10:50;;;;;;;2.65;1.70;;;5.20;99.90;;;;;;1841802;76;21215;-68
2021/04/06 00:13:18;;;;;;;2.65;1.60;;;5.10;99.90;;;;;;1842910;76;21145;-70
2021/04/06 00:15:47;;;;;;;3.45;1.47;;;5.10;99.90;;;;;;1842769;76;21127;-69
2021/04/06 00:18:17;;;;;;;2.80;1.70;;;5.00;99.90;;;;;;1842876;76;21312;-69
2021/04/06 00:20:46;;;;;;;2.50;1.57;;;5.00;99.90;;;;;;1839726;76;21118;-69
2021/04/06 00:23:17;;;;;;;3.87;1.95;;;5.00;99.90;;;;;;1841984;76;21110;-67
2021/04/06 00:25:47;;;;;;;5.08;1.80;;;5.10;99.90;;;;;;1845145;76;21118;-67
2021/04/06 00:28:23;;;;;;;2.95;1.75;;;5.20;99.90;;;;;;1846191;76;21195;-68
2021/04/06 00:30:55;;;;;;;2.20;1.80;;;5.10;99.90;;;;;;1839323;76;21121;-67
2021/04/06 00:33:26;;;;;;;2.92;1.82;;;5.10;99.90;;;;;;1841706;76;22055;-67
2021/04/06 00:35:59;;;;;;;2.70;1.87;;;5.00;99.90;;;;;;1842917;76;21153;-67
2021/04/06 00:38:35;;;;;;;2.92;1.82;;;5.00;99.90;;;;;;1842864;76;21251;-67
2021/04/06 00:41:08;;;;;;;3.50;1.90;;;5.00;99.90;;;;;;1839427;76;22135;-67
2021/04/06 00:43:39;;;;;;;4.55;1.87;;;5.00;99.90;;;;;;1843487;76;21113;-67
2021/04/06 00:46:09;;;;;;;2.47;1.67;;;5.00;99.90;;;;;;1844306;76;21223;-67
2021/04/06 00:48:39;;;;;;;2.47;1.80;;;5.00;99.90;;;;;;1843458;77;21125;-68
2021/04/06 00:51:16;;;;;;;4.55;1.85;;;5.00;99.90;;;;;;1845263;76;21277;-67
2021/04/06 00:53:58;;;;;;;3.70;2.00;;;4.90;99.90;;;;;;1845726;76;21130;-67
2021/04/06 00:56:42;;;;;;;4.85;2.20;;;4.80;99.90;;;;;;1841455;76;21158;-66
2021/04/06 00:59:12;;;;;;;3.92;2.30;;;4.80;99.90;;;;;;1841447;76;22280;-66
2021/04/06 01:01:44;;;;;;;3.65;2.20;;;4.80;99.90;;;;;;1847617;76;21597;-66
2021/04/06 01:04:17;;;;;;;5.28;2.17;;;4.80;99.90;;;;;;1847445;76;21243;-67
2021/04/06 01:07:06;;;;;;;6.78;2.30;;;4.90;99.90;;;;;;1846353;76;21308;-68
2021/04/06 01:09:47;;;;;;;5.80;2.25;;;4.90;99.90;;;;;;1840939;76;21118;-67
2021/04/06 01:12:23;;;;;;;4.72;2.72;;;4.90;99.90;;;;;;1843657;76;21555;-67
2021/04/06 01:14:52;;;;;;;6.75;2.15;;;4.90;99.90;;;;;;1840069;76;21117;-67
2021/04/06 01:17:23;;;;;;;6.08;2.33;;;4.90;99.90;;;;;;1850989;76;21530;-67
2021/04/06 01:19:50;;;;;;;5.05;2.55;;;5.00;99.90;;;;;;1849858;76;21042;-67
2021/04/06 01:22:20;;;;;;;6.55;2.80;;;5.00;99.90;;;;;;1848010;76;21121;-66
2021/04/06 01:24:48;;;;;;;8.38;2.83;;;5.00;99.90;;;;;;1848746;76;21085;-67
2021/04/06 01:27:20;;;;;;;10.75;2.62;;;5.00;99.90;;;;;;1846734;76;21681;-67
2021/04/06 01:29:56;;;;;;;6.22;2.65;;;5.10;99.90;;;;;;1843432;76;21070;-67
2021/04/06 01:32:26;;;;;;;7.17;2.62;;;5.00;99.90;;;;;;1844954;76;21091;-67
2021/04/06 01:34:56;;;;;;;6.90;2.70;;;5.00;99.90;;;;;;1845714;76;21179;-65
2021/04/06 01:37:28;;;;;;;6.10;2.40;;;4.90;99.90;;;;;;1844142;76;21149;-67
2021/04/06 01:39:58;;;;;;;5.35;2.42;;;4.90;99.90;;;;;;1840433;76;21624;-67
2021/04/06 01:42:29;;;;;;;3.92;1.95;;;4.90;99.90;;;;;;1842656;76;21125;-67
2021/04/06 01:44:56;;;;;;;7.30;2.40;;;4.90;99.90;;;;;;1845515;76;21114;-67
2021/04/06 01:47:25;;;;;;;5.85;2.20;;;4.90;99.90;;;;;;1847934;76;21203;-68
2021/04/06 01:49:54;;;;;;;6.08;2.33;;;5.00;99.90;;;;;;1843971;76;21197;-68
2021/04/06 01:52:22;;;;;;;4.35;2.15;;;4.90;99.90;;;;;;1843751;76;21173;-67
2021/04/06 01:54:56;;;;;;;4.53;1.95;;;5.00;99.90;;;;;;1839232;77;21148;-69
2021/04/06 01:57:28;;;;;;;7.70;2.27;;;5.00;99.90;;;;;;1841078;76;21829;-66
2021/04/06 02:00:01;;;;;;;3.87;2.30;;;5.00;99.90;;;;;;1845259;76;21172;-67
2021/04/06 02:02:30;;;;;;;5.10;2.37;;;5.00;99.90;;;;;;1842979;76;21187;-67
2021/04/06 02:05:02;;;;;;;5.53;2.00;;;4.90;99.90;;;;;;1851080;76;21142;-66
2021/04/06 02:07:35;;;;;;;4.10;1.70;;;5.00;99.90;;;;;;1847730;76;21122;-67
2021/04/06 02:10:00;;;;;;;8.18;2.30;;;4.90;99.90;;;;;;1843532;76;21571;-67
2021/04/06 02:12:28;;;;;;;7.30;2.55;;;4.90;99.90;;;;;;1847493;76;21144;-67
2021/04/06 02:15:01;;;;;;;5.42;1.85;;;4.90;99.90;;;;;;1844305;76;21190;-67
2021/04/06 02:17:30;;;;;;;6.30;1.70;;;4.90;99.90;;;;;;1844074;76;21212;-66
2021/04/06 02:19:57;;;;;;;7.67;1.80;;;4.90;99.90;;;;;;1841709;76;21236;-67
2021/04/06 02:22:25;;;;;;;6.58;2.05;;;4.90;99.90;;;;;;1847319;76;21178;-67
2021/04/06 02:24:53;;;;;;;6.80;2.17;;;5.00;99.90;;;;;;1846936;76;21102;-68
2021/04/06 02:27:32;;;;;;;7.25;1.72;;;5.00;99.90;;;;;;1847114;76;21215;-69
2021/04/06 02:30:01;;;;;;;6.05;1.72;;;5.10;99.90;;;;;;1847475;76;21588;-69
2021/04/06 02:32:31;;;;;;;7.65;2.42;;;5.10;99.90;;;;;;1845210;76;21110;-69
2021/04/06 02:35:02;;;;;;;8.98;3.00;;;5.10;99.90;;;;;;1845886;76;21035;-69
2021/04/06 02:37:34;;;;;;;9.33;3.50;;;5.10;99.90;;;;;;1876609;71;21093;-65
2021/04/06 02:40:05;;;;;;;8.08;2.67;;;5.10;99.90;;;;;;1909002;74;21041;-65
2021/04/06 02:42:47;;;;;;;11.97;4.07;;;5.10;99.90;;;;;;1911711;74;21057;-65
2021/04/06 02:45:23;;;;;;;9.10;3.87;;;5.20;99.90;;;;;;1911015;74;21030;-66
2021/04/06 02:48:02;;;;;;;10.45;4.33;;;5.20;99.90;;;;;;1892512;74;21070;-66
2021/04/06 02:50:26;;;;;;;10.70;4.58;;;5.30;99.90;;;;;;1877200;75;21006;-65
2021/04/06 02:52:55;;;;;;;11.43;4.08;;;5.20;99.90;;;;;;1881347;75;21597;-66
2021/04/06 02:55:25;;;;;;;9.25;4.58;;;5.20;99.90;;;;;;1882041;75;21022;-64
2021/04/06 02:57:56;;;;;;;10.98;4.95;;;5.20;99.90;;;;;;1885912;74;21054;-65
2021/04/06 03:00:30;;;;;;;10.70;4.78;;;5.30;99.90;;;;;;1883016;75;21132;-65
2021/04/06 03:03:03;;;;;;;13.88;5.85;;;5.30;99.90;;;;;;1878946;75;21130;-65
2021/04/06 03:05:39;;;;;;;15.10;5.30;;;5.30;99.90;;;;;;1887118;75;21504;-66
2021/04/06 03:08:07;;;;;;;12.95;4.45;;;5.20;99.90;;;;;;1884229;74;21030;-66
2021/04/06 03:10:36;;;;;;;10.00;4.58;;;5.30;99.90;;;;;;1883440;75;21090;-65
2021/04/06 03:13:11;;;;;;;12.98;4.42;;;5.30;99.90;;;;;;1881858;75;21089;-65
2021/04/06 03:15:42;;;;;;;10.82;3.65;;;5.40;99.90;;;;;;1880242;75;21564;-65
2021/04/06 03:18:12;;;;;;;10.70;3.37;;;5.40;99.90;;;;;;1882744;75;21199;-64
2021/04/06 03:20:45;;;;;;;9.58;3.25;;;5.40;99.90;;;;;;1883645;75;21099;-65
2021/04/06 03:23:10;;;;;;;11.75;3.67;;;5.50;99.90;;;;;;1883450;75;21564;-64
2021/04/06 03:25:39;;;;;;;9.45;2.87;;;5.40;99.90;;;;;;1882734;75;21188;-64
2021/04/06 03:28:08;;;;;;;14.63;3.40;;;5.40;99.90;;;;;;1882278;75;21203;-65
2021/04/06 03:30:36;;;;;;;13.00;2.80;;;5.40;99.90;;;;;;1883079;75;21136;-63
2021/04/06 03:33:06;;;;;;;12.13;2.70;;;5.40;99.90;;;;;;1881712;74;21133;-64
2021/04/06 03:35:35;;;;;;;10.38;2.80;;;5.40;99.90;;;;;;1881485;75;21123;-64
2021/04/06 03:38:05;;;;;;;10.82;2.70;;;5.40;99.90;;;;;;1881762;75;21311;-65
2021/04/06 03:40:34;;;;;;;14.30;3.75;;;5.40;99.90;;;;;;1884970;75;21167;-66
2021/04/06 03:43:19;;;;;;;10.58;2.60;;;5.40;99.90;;;;;;1882232;75;21062;-65
2021/04/06 03:45:56;;;;;;;12.25;2.37;;;5.40;99.90;;;;;;1881047;75;21125;-65
2021/04/06 03:48:26;;;;;;;12.20;2.65;;;5.40;99.90;;;;;;1881308;75;21137;-63
2021/04/06 03:50:54;;;;;;;9.30;2.62;;;5.40;99.90;;;;;;1881545;75;21089;-64
2021/04/06 03:53:25;;;;;;;12.58;2.70;;;5.40;99.90;;;;;;1883436;75;21089;-65
2021/04/06 03:56:13;;;;;;;13.13;3.02;;;5.40;99.90;;;;;;1881656;74;21669;-65
2021/04/06 03:58:46;;;;;;;10.00;3.27;;;5.40;99.90;;;;;;1879312;75;21230;-65
2021/04/06 04:01:13;;;;;;;13.28;2.47;;;5.50;99.90;;;;;;1883472;74;21659;-66
2021/04/06 04:03:41;;;;;;;10.85;3.02;;;5.50;99.90;;;;;;1885334;74;21120;-64
2021/04/06 04:06:09;;;;;;;13.83;3.30;;;5.50;99.90;;;;;;1879354;75;21094;-65
2021/04/06 04:08:36;;;;;;;15.63;3.90;;;5.60;99.90;;;;;;1881816;74;21219;-64
2021/04/06 04:11:04;;;;;;;15.55;3.45;;;5.50;99.90;;;;;;1884297;75;21036;-63
2021/04/06 04:13:31;;;;;;;9.50;3.20;;;5.60;99.90;;;;;;1887180;75;21453;-65
2021/04/06 04:15:59;;;;;;;14.33;3.98;;;5.60;99.90;;;;;;1883339;74;21112;-65
2021/04/06 04:18:26;;;;;;;17.45;3.92;;;5.50;99.90;;;;;;1882942;74;21132;-64
2021/04/06 04:20:54;;;;;;;13.48;3.35;;;5.50;99.90;;;;;;1883835;75;21124;-64
2021/04/06 04:23:21;;;;;;;14.98;3.65;;;5.50;99.90;;;;;;1887622;74;22103;-63
2021/04/06 04:25:49;;;;;;;15.53;4.05;;;5.50;99.90;;;;;;1881123;75;21101;-65
2021/04/06 04:28:16;;;;;;;11.83;3.10;;;5.50;99.90;;;;;;1883192;75;21125;-65
2021/04/06 04:30:52;;;;;;;11.70;3.22;;;5.50;99.90;;;;;;1882962;75;21097;-63
2021/04/06 04:33:19;;;;;;;15.45;3.12;;;5.60;99.90;;;;;;1883854;75;21486;-64
2021/04/06 04:35:46;;;;;;;14.00;3.10;;;5.60;99.90;;;;;;1886714;75;21259;-62
2021/04/06 04:38:14;;;;;;;17.00;3.17;;;5.50;99.90;;;;;;1883929;75;21606;-64
2021/04/06 04:40:45;;;;;;;15.43;3.25;;;5.50;99.90;;;;;;1884863;75;21135;-65
2021/04/06 04:43:14;;;;;;;13.35;3.37;;;5.40;99.90;;;;;;1881918;75;21139;-63
2021/04/06 04:45:42;;;;;;;12.13;3.58;;;5.40;99.90;;;;;;1880916;75;21163;-66
2021/04/06 04:48:09;;;;;;;10.93;2.67;;;5.40;99.90;;;;;;1880941;74;21256;-67
2021/04/06 04:50:37;;;;;;;10.90;2.83;;;5.40;99.90;;;;;;1884513;75;21598;-65
2021/04/06 04:53:04;;;;;;;15.80;3.10;;;5.40;99.90;;;;;;1885485;75;21061;-65
2021/04/06 04:55:32;;;;;;;15.15;3.08;;;5.40;99.90;;;;;;1885247;75;21046;-66
2021/04/06 04:58:00;;;;;;;18.77;3.30;;;5.50;99.90;;;;;;1882757;74;21160;-66
2021/04/06 05:00:27;;;;;;;15.70;3.60;;;5.50;99.90;;;;;;1881563;75;21612;-66
2021/04/06 05:02:55;;;;;;;16.32;3.67;;;5.50;99.90;;;;;;1884262;75;21186;-66
2021/04/06 05:05:22;;;;;;;15.13;3.12;;;5.40;99.90;;;;;;1884108;75;21042;-65
2021/04/06 05:07:50;;;;;;;16.97;3.35;;;5.50;99.90;;;;;;1881304;75;21112;-66
2021/04/06 05:10:18;;;;;;;19.55;3.87;;;5.40;99.90;;;;;;1883593;75;21090;-66
2021/04/06 05:12:49;;;;;;;16.25;3.77;;;5.40;99.90;;;;;;1883582;75;21174;-65
2021/04/06 05:15:17;;;;;;;18.05;4.20;;;5.40;99.90;;;;;;1883013;75;21050;-67
2021/04/06 05:17:45;;;;;;;19.48;4.33;;;5.40;99.90;;;;;;1881528;74;21233;-64
2021/04/06 05:20:13;;;;;;;21.60;3.47;;;5.40;99.90;;;;;;1879222;75;21124;-66
2021/04/06 05:22:41;;;;;;;14.43;3.47;;;5.40;99.90;;;;;;1879822;75;21077;-65
2021/04/06 05:25:09;;;;;;;16.77;3.00;;;5.40;99.90;;;;;;1884084;75;21041;-66
2021/04/06 05:27:37;;;;;;;17.20;2.87;;;5.30;99.90;;;;;;1884193;74;21116;-65
2021/04/06 05:30:05;;;;;;;14.55;3.58;;;5.30;99.90;;;;;;1882536;75;21096;-66
2021/04/06 05:32:33;;;;;;;14.00;3.00;;;5.20;99.90;;;;;;1881810;75;21085;-66
2021/04/06 05:35:00;;;;;;;13.00;2.80;;;5.10;99.90;;;;;;1886766;75;21096;-65
2021/04/06 05:37:28;;;;;;;20.35;3.25;;;5.20;99.90;;;;;;1884917;75;21145;-65
2021/04/06 05:39:55;;;;;;;11.75;2.77;;;5.20;99.90;;;;;;1886454;75;21721;-65
2021/04/06 05:42:23;;;;;;;14.87;2.60;;;5.20;99.90;;;;;;1881583;75;21085;-67
2021/04/06 05:44:52;;;;;;;17.32;2.90;;;5.20;99.90;;;;;;1887586;75;21183;-65
2021/04/06 05:47:25;;;;;;;12.35;2.62;;;5.30;99.90;;;;;;1881776;75;22261;-65
2021/04/06 05:49:53;;;;;;;13.32;2.80;;;5.40;99.90;;;;;;1883839;75;21043;-64
2021/04/06 05:52:20;;;;;;;18.12;3.30;;;5.40;99.90;;;;;;1885797;75;21504;-66
2021/04/06 05:54:48;;;;;;;12.93;2.62;;;5.50;99.90;;;;;;1881724;75;21585;-64
2021/04/06 05:57:15;;;;;;;17.95;2.83;;;5.50;99.90;;;;;;1886358;75;21186;-64
2021/04/06 05:59:43;;;;;;;13.15;3.22;;;5.50;99.90;;;;;;1884477;75;21091;-65
2021/04/06 06:02:11;;;;;;;22.07;5.83;;;5.60;99.90;;;;;;1884014;75;21072;-64
2021/04/06 06:04:38;;;;;;;16.48;3.60;;;5.60;99.90;;;;;;1882292;75;20991;-64
2021/04/06 06:07:06;;;;;;;15.53;4.08;;;5.60;99.90;;;;;;1886555;75;21038;-65
2021/04/06 06:09:36;;;;;;;16.45;4.65;;;5.60;99.90;;;;;;1882519;75;21037;-62
2021/04/06 06:12:10;;;;;;;14.55;3.92;;;5.60;99.90;;;;;;1887699;74;21010;-65
2021/04/06 06:14:43;;;;;;;14.45;2.77;;;5.60;99.90;;;;;;1885156;74;21081;-64
2021/04/06 06:17:16;;;;;;;14.20;3.02;;;5.60;99.90;;;;;;1884346;74;21187;-64
2021/04/06 06:19:45;;;;;;;13.72;3.45;;;5.60;99.90;;;;;;1878146;75;21582;-63
2021/04/06 06:22:15;;;;;;;18.70;3.83;;;5.70;99.90;;;;;;1884725;74;21214;-65
2021/04/06 06:24:47;;;;;;;15.40;3.35;;;5.60;99.90;;;;;;1881102;75;21203;-63
2021/04/06 06:27:32;;;;;;;16.75;4.72;;;5.50;99.90;;;;;;1882766;74;21149;-64
2021/04/06 06:29:55;;;;;;;14.47;4.05;;;5.60;99.90;;;;;;1883847;74;21106;-66
2021/04/06 06:32:23;;;;;;;21.15;3.95;;;5.70;99.90;;;;;;1883927;75;21693;-66
2021/04/06 06:34:51;;;;;;;15.23;3.55;;;5.70;99.90;;;;;;1889859;75;21157;-66
2021/04/06 06:37:26;;;;;;;15.48;3.17;;;5.70;99.90;;;;;;1885744;74;21190;-66
2021/04/06 06:39:57;;;;;;;20.27;5.97;;;5.70;99.90;;;;;;1861095;75;21765;-66
2021/04/06 06:42:27;;;;;;;19.73;4.80;;;5.80;99.90;;;;;;1887424;75;21192;-64
2021/04/06 06:44:55;;;;;;;17.23;3.60;;;5.90;99.90;;;;;;1883072;75;21601;-66
2021/04/06 06:47:26;;;;;;;18.90;3.58;;;6.00;99.90;;;;;;1882754;75;21214;-66
2021/04/06 06:49:55;;;;;;;27.02;4.40;;;6.10;99.90;;;;;;1884691;75;21191;-66
2021/04/06 06:52:28;;;;;;;17.25;4.33;;;6.10;99.90;;;;;;1882631;75;21183;-65
2021/04/06 06:55:02;;;;;;;16.97;4.10;;;6.10;99.90;;;;;;1886127;74;22018;-64
2021/04/06 06:57:35;;;;;;;18.17;3.58;;;6.10;99.90;;;;;;1884764;74;21081;-66
2021/04/06 07:00:22;;;;;;;21.85;4.22;;;6.00;99.90;;;;;;1878678;75;21113;-65
2021/04/06 07:02:50;;;;;;;18.82;4.15;;;6.00;99.90;;;;;;1794207;78;21135;-67
2021/04/06 07:05:26;;;;;;;20.35;4.65;;;5.90;99.90;;;;;;1795750;78;21607;-66
2021/04/06 07:08:05;;;;;;;18.87;3.98;;;5.80;99.90;;;;;;1870680;75;21612;-66
2021/04/06 07:10:38;;;;;;;21.57;4.35;;;5.80;99.90;;;;;;1869468;75;21265;-65
2021/04/06 07:13:08;;;;;;;16.20;4.20;;;5.80;99.90;;;;;;1869920;75;21105;-66
2021/04/06 07:15:38;;;;;;;17.95;4.67;;;5.80;99.90;;;;;;1864984;75;21593;-63
2021/04/06 07:18:09;;;;;;;21.23;4.10;;;5.80;99.90;;;;;;1867079;75;21343;-65
2021/04/06 07:20:40;;;;;;;19.90;4.67;;;5.80;99.90;;;;;;1868283;75;21082;-64
2021/04/06 07:23:10;;;;;;;24.75;4.17;;;5.80;99.90;;;;;;1869964;75;21128;-65
2021/04/06 07:25:38;;;;;;;18.00;4.28;;;5.80;99.90;;;;;;1874494;75;21707;-66
2021/04/06 07:28:05;;;;;;;20.45;3.67;;;5.90;99.90;;;;;;1868625;75;21227;-65
2021/04/06 07:30:33;;;;;;;24.47;4.03;;;5.80;99.90;;;;;;1869657;75;21103;-66
2021/04/06 07:33:02;;;;;;;15.63;3.60;;;5.90;99.90;;;;;;1872186;75;21090;-66
2021/04/06 07:35:29;;;;;;;15.32;3.70;;;6.00;99.90;;;;;;1875993;75;21042;-66
2021/04/06 07:37:57;;;;;;;13.10;3.65;;;6.00;99.90;;;;;;1869552;75;21079;-67
2021/04/06 07:40:26;;;;;;;15.55;3.47;;;6.00;99.90;;;;;;1871192;75;21580;-65
2021/04/06 07:42:54;;;;;;;15.70;4.12;;;6.00;99.90;;;;;;1870256;75;21077;-66
2021/04/06 07:45:28;;;;;;;14.15;3.50;;;6.20;99.90;;;;;;1870072;76;21800;-66
2021/04/06 07:47:55;;;;;;;15.00;3.80;;;6.30;99.90;;;;;;1874396;75;21483;-65
2021/04/06 07:50:41;;;;;;;13.38;3.27;;;6.40;99.90;;;;;;1873620;75;21104;-65
2021/04/06 07:53:25;;;;;;;9.35;2.85;;;6.50;99.90;;;;;;1868803;75;21086;-66
2021/04/06 07:55:54;;;;;;;13.50;3.15;;;6.40;99.90;;;;;;1867228;75;21571;-65
2021/04/06 07:58:47;;;;;;;8.80;2.58;;;6.40;99.90;;;;;;1870256;75;21137;-65
2021/04/06 08:01:20;;;;;;;13.85;2.87;;;6.50;99.90;;;;;;1866463;76;21485;-65
2021/04/06 08:03:59;;;;;;;16.15;3.45;;;6.40;99.90;;;;;;1866822;75;21087;-67
2021/04/06 08:06:28;;;;;;;12.03;3.00;;;6.40;99.90;;;;;;1873844;75;21199;-66
2021/04/06 08:08:55;;;;;;;16.82;3.77;;;6.40;99.90;;;;;;1871411;75;21540;-66
2021/04/06 08:11:43;;;;;;;10.95;3.27;;;6.40;99.90;;;;;;1872944;75;21167;-65
2021/04/06 08:14:13;;;;;;;15.83;3.55;;;6.40;99.90;;;;;;1869514;75;21265;-66
2021/04/06 08:16:40;;;;;;;12.88;3.15;;;6.50;99.90;;;;;;1870144;75;21605;-67
2021/04/06 08:19:08;;;;;;;18.82;3.58;;;6.40;99.90;;;;;;1870104;75;21170;-67
2021/04/06 08:21:35;;;;;;;13.28;3.22;;;6.30;99.90;;;;;;1873736;75;21323;-65
2021/04/06 08:24:06;;;;;;;15.72;3.62;;;6.50;99.90;;;;;;1868140;75;21058;-67
2021/04/06 08:26:35;;;;;;;14.53;3.15;;;6.60;99.90;;;;;;1865112;75;21667;-65
2021/04/06 08:29:27;;;;;;;19.15;3.25;;;6.70;99.90;;;;;;1869434;75;21453;-66
2021/04/06 08:32:17;;;;;;;14.70;3.92;;;6.80;99.90;;;;;;1865958;75;21120;-66
2021/04/06 08:34:52;;;;;;;17.27;3.90;;;6.90;99.90;;;;;;1868054;75;21618;-66
2021/04/06 08:37:39;;;;;;;13.83;3.40;;;6.90;99.90;;;;;;1869123;75;21168;-67
2021/04/06 08:40:09;;;;;;;13.45;4.03;;;6.80;99.90;;;;;;1839441;77;21136;-68
2021/04/06 08:42:38;;;;;;;11.05;2.60;;;6.70;99.90;;;;;;1794788;78;21113;-70
2021/04/06 08:45:06;;;;;;;10.05;2.60;;;6.50;99.90;;;;;;1832886;77;21149;-68
2021/04/06 08:47:43;;;;;;;10.63;2.52;;;6.50;99.90;;;;;;1843830;75;21180;-68
2021/04/06 08:50:13;;;;;;;10.40;2.40;;;6.40;99.90;;;;;;1865708;75;21082;-68
2021/04/06 08:52:40;;;;;;;9.28;2.62;;;6.30;99.90;;;;;;1862152;75;21051;-70
2021/04/06 08:55:14;;;;;;;8.50;2.70;;;6.10;99.90;;;;;;1864308;75;21171;-68
2021/04/06 08:57:41;;;;;;;7.22;2.40;;;6.10;99.90;;;;;;1862768;75;21090;-68
2021/04/06 09:00:12;;;;;;;9.03;3.05;;;5.80;99.90;;;;;;1862212;75;21467;-68
2021/04/06 09:02:40;;;;;;;10.32;4.17;;;5.70;99.90;;;;;;1860298;75;21569;-68
2021/04/06 09:05:08;;;;;;;8.65;4.30;;;5.60;99.90;;;;;;1862259;75;21101;-68
2021/04/06 09:07:40;;;;;;;11.53;4.15;;;5.60;99.90;;;;;;1863484;75;21767;-68
2021/04/06 09:10:14;;;;;;;15.25;4.85;;;5.60;99.90;;;;;;1860405;75;21060;-68
2021/04/06 09:12:45;;;;;;;8.50;3.90;;;5.70;99.90;;;;;;1861962;75;21201;-68
2021/04/06 09:15:15;;;;;;;10.63;3.87;;;5.70;99.90;;;;;;1862561;75;21546;-68
2021/04/06 09:17:43;;;;;;;13.90;3.67;;;5.90;99.90;;;;;;1858588;75;21134;-68
2021/04/06 09:20:16;;;;;;;9.10;3.12;;;6.00;99.90;;;;;;1862609;75;21087;-68
2021/04/06 09:22:47;;;;;;;12.40;3.80;;;6.20;99.90;;;;;;1862208;75;21106;-68
2021/04/06 09:25:17;;;;;;;13.08;3.98;;;6.40;99.90;;;;;;1864843;75;21659;-68
2021/04/06 09:27:50;;;;;;;14.18;4.60;;;6.60;99.90;;;;;;1844314;75;21220;-68
2021/04/06 09:30:19;;;;;;;13.98;4.00;;;6.70;99.90;;;;;;1860914;75;21592;-68
2021/04/06 09:32:48;;;;;;;14.85;4.12;;;6.80;99.90;;;;;;1859048;76;21091;-68
2021/04/06 09:35:18;;;;;;;16.55;3.70;;;6.70;99.90;;;;;;1867036;75;21194;-67
2021/04/06 09:37:46;;;;;;;15.43;4.25;;;6.70;99.90;;;;;;1861750;75;21070;-67
2021/04/06 09:40:14;;;;;;;20.43;4.33;;;6.80;99.90;;;;;;1894708;74;21142;-67
2021/04/06 09:42:41;;;;;;;14.23;3.67;;;6.80;99.90;;;;;;1899665;74;21109;-67
2021/04/06 09:45:09;;;;;;;14.80;3.72;;;6.80;99.90;;;;;;1901086;74;21120;-68
2021/04/06 09:47:37;;;;;;;9.05;3.35;;;6.80;99.90;;;;;;1904171;74;21660;-67
2021/04/06 09:50:06;;;;;;;10.65;2.83;;;6.90;99.90;;;;;;1894619;74;21101;-68
2021/04/06 09:52:34;;;;;;;9.88;4.15;;;6.80;99.90;;;;;;1905013;74;21523;-66
2021/04/06 09:55:07;;;;;;;10.35;3.40;;;7.00;99.90;;;;;;1906155;74;21140;-67
2021/04/06 09:57:37;;;;;;;11.30;4.08;;;7.10;99.90;;;;;;1904500;74;21622;-68
2021/04/06 10:00:07;;;;;;;10.98;3.58;;;7.20;99.90;;;;;;1900512;74;21536;-67
2021/04/06 10:02:35;;;;;;;11.48;3.30;;;7.40;99.90;;;;;;1903316;74;21105;-68
2021/04/06 10:05:03;;;;;;;13.70;4.28;;;7.50;99.90;;;;;;1906856;74;21089;-67
2021/04/06 10:07:36;;;;;;;10.75;3.08;;;7.60;99.90;;;;;;1904213;74;21257;-68
2021/04/06 10:10:10;;;;;;;;;;;7.70;99.90;;;;;;1897176;74;21403;-67
2021/04/06 10:12:38;;;;;;;6.67;2.83;;;7.80;99.90;;;;;;1898558;74;20216;-68
2021/04/06 10:15:06;;;;;;;7.05;2.67;;;7.90;99.90;;;;;;1899283;74;21062;-67
2021/04/06 10:17:39;;;;;;;11.93;3.45;;;8.00;99.90;;;;;;1904035;74;21285;-67
2021/04/06 10:20:10;;;;;;;9.48;3.30;;;8.20;99.90;;;;;;1899973;74;21037;-68
2021/04/06 10:22:43;;;;;;;15.00;3.33;;;8.20;99.90;;;;;;1906950;74;21134;-68
2021/04/06 10:25:12;;;;;;;15.32;4.30;;;8.40;99.90;;;;;;1898025;74;21183;-68
2021/04/06 10:27:47;;;;;;;23.27;6.95;;;8.50;99.90;;;;;;1900433;74;21223;-68
2021/04/06 10:30:17;;;;;;;21.57;7.22;;;8.50;99.90;;;;;;1896911;74;21226;-67
2021/04/06 10:32:47;;;;;;;15.20;5.22;;;8.30;99.90;;;;;;1895330;74;21328;-67
2021/04/06 10:35:18;;;;;;;14.68;4.25;;;8.30;99.90;;;;;;1902336;74;21086;-72
2021/04/06 10:37:52;;;;;;;13.80;3.22;;;8.30;99.90;;;;;;1898065;74;21164;-75
2021/04/06 10:40:43;;;;;;;12.03;3.60;;;8.30;99.90;;;;;;1897235;74;21098;-75
2021/04/06 10:43:13;;;;;;;7.30;2.52;;;8.10;99.70;;;;;;1848842;76;21101;-67
2021/04/06 10:45:47;;;;;;;9.35;2.58;;;7.90;99.90;;;;;;1844261;76;21102;-68
2021/04/06 10:48:20;;;;;;;9.38;2.45;;;7.80;99.90;;;;;;1851985;76;21791;-67
2021/04/06 10:50:52;;;;;;;10.58;2.12;;;7.70;99.90;;;;;;1897425;74;21139;-67
2021/04/06 10:53:29;;;;;;;8.40;2.30;;;7.70;99.90;;;;;;1898355;74;21167;-67
2021/04/06 10:56:06;;;;;;;8.48;2.22;;;7.50;99.90;;;;;;1900346;74;21578;-67
2021/04/06 10:58:37;;;;;;;7.75;2.25;;;7.40;99.90;;;;;;1898704;74;21125;-67
2021/04/06 11:01:10;;;;;;;10.50;3.17;;;7.30;99.90;;;;;;1902710;74;21175;-67
2021/04/06 11:03:56;;;;;;;10.10;2.75;;;7.20;99.90;;;;;;1901034;74;21106;-67
2021/04/06 11:06:35;;;;;;;7.05;2.20;;;7.10;99.90;;;;;;1900645;74;21120;-67
2021/04/06 11:09:05;;;;;;;6.53;1.95;;;6.90;99.90;;;;;;1898412;74;21074;-67
2021/04/06 11:11:34;;;;;;;7.60;2.45;;;6.90;99.90;;;;;;1895897;74;21092;-67
2021/04/06 11:14:05;;;;;;;5.58;2.45;;;7.00;99.90;;;;;;1903037;74;21019;-68
2021/04/06 11:16:34;;;;;;;7.70;2.40;;;7.10;99.90;;;;;;1895025;74;21253;-68
2021/04/06 11:19:07;;;;;;;9.10;2.70;;;7.10;99.90;;;;;;1900651;74;21062;-68
2021/04/06 11:21:38;;;;;;;13.05;3.80;;;7.40;99.90;;;;;;1900184;74;21038;-67
2021/04/06 11:24:06;;;;;;;8.45;2.90;;;7.60;99.90;;;;;;1902911;74;21050;-68
2021/04/06 11:26:34;;;;;;;7.85;2.65;;;7.70;99.90;;;;;;1902432;74;21089;-68
2021/04/06 11:29:02;;;;;;;9.25;3.08;;;7.50;99.90;;;;;;1903232;74;21118;-68
2021/04/06 11:31:30;;;;;;;8.70;2.30;;;7.50;99.90;;;;;;1898815;74;21085;-68
2021/04/06 11:33:57;;;;;;;7.42;3.27;;;7.40;99.90;;;;;;1902745;74;21034;-68
2021/04/06 11:36:25;;;;;;;9.78;2.30;;;7.30;99.90;;;;;;1898262;74;21063;-68
2021/04/06 11:38:52;;;;;;;5.33;2.12;;;7.20;99.90;;;;;;1893562;74;21125;-68
2021/04/06 11:41:20;;;;;;;11.50;2.77;;;7.20;99.90;;;;;;1892335;74;21109;-67
2021/04/06 11:43:49;;;;;;;10.10;3.10;;;7.00;99.90;;;;;;1900272;74;21098;-68
2021/04/06 11:46:17;;;;;;;8.80;2.85;;;7.00;99.90;;;;;;1895520;75;21174;-68
2021/04/06 11:48:46;;;;;;;5.67;1.70;;;6.90;99.90;;;;;;1897702;74;21642;-67
2021/04/06 11:51:14;;;;;;;6.60;1.80;;;6.90;99.90;;;;;;1897034;75;21035;-68
2021/04/06 11:53:43;;;;;;;6.20;1.98;;;6.90;99.90;;;;;;1899242;74;21086;-70
2021/04/06 11:56:10;;;;;;;8.10;2.05;;;7.00;99.90;;;;;;1901113;74;21101;-69
2021/04/06 11:58:38;;;;;;;9.23;2.25;;;7.10;99.90;;;;;;1899007;74;21745;-67
2021/04/06 12:01:05;;;;;;;6.95;1.82;;;7.50;99.90;;;;;;1896465;75;21046;-68
2021/04/06 12:03:33;;;;;;;7.90;2.42;;;7.80;99.90;;;;;;1901484;74;21412;-68
2021/04/06 12:06:00;;;;;;;12.65;3.08;;;8.30;99.90;;;;;;1898759;74;21046;-69
2021/04/06 12:08:28;;;;;;;8.40;3.55;;;8.80;99.90;;;;;;1899314;74;21155;-69
2021/04/06 12:10:55;;;;;;;12.75;3.33;;;9.10;99.90;;;;;;1899128;74;21086;-68
2021/04/06 12:13:24;;;;;;;14.35;3.20;;;9.30;99.90;;;;;;1893852;74;21085;-68
2021/04/06 12:15:52;;;;;;;10.93;2.85;;;9.60;99.90;;;;;;1898086;74;21098;-69
2021/04/06 12:18:20;;;;;;;10.82;3.35;;;9.90;99.90;;;;;;1896522;74;21563;-70
2021/04/06 12:20:47;;;;;;;12.15;2.83;;;9.80;99.90;;;;;;1899568;74;21109;-68
2021/04/06 12:23:14;;;;;;;11.28;3.15;;;9.60;98.90;;;;;;1907406;74;21167;-69
2021/04/06 12:25:42;;;;;;;5.58;2.40;;;9.30;99.80;;;;;;1897243;74;21086;-69
2021/04/06 12:28:10;;;;;;;5.50;1.82;;;8.90;99.40;;;;;;1902833;74;21658;-68
2021/04/06 12:30:37;;;;;;;10.38;3.35;;;8.60;99.90;;;;;;1898027;74;21536;-69
2021/04/06 12:33:05;;;;;;;10.00;2.00;;;8.30;99.90;;;;;;1898922;74;21105;-68
2021/04/06 12:35:32;;;;;;;7.83;1.82;;;8.20;99.90;;;;;;1903321;74;21096;-69
2021/04/06 12:38:00;;;;;;;11.90;2.42;;;7.90;99.90;;;;;;1895949;74;21669;-69
2021/04/06 12:40:31;;;;;;;8.95;2.25;;;7.70;99.90;;;;;;1896278;75;21208;-69
2021/04/06 12:42:56;;;;;;;8.15;2.25;;;7.70;99.90;;;;;;1895510;74;21437;-68
2021/04/06 12:45:24;;;;;;;9.60;2.42;;;7.60;99.90;;;;;;1901473;74;21179;-68
2021/04/06 12:47:51;;;;;;;10.35;2.90;;;7.60;99.90;;;;;;1897137;74;21175;-69
2021/04/06 12:50:20;;;;;;;11.90;2.90;;;7.60;99.90;;;;;;1896501;74;21088;-69
2021/04/06 12:52:48;;;;;;;14.40;3.55;;;7.60;99.90;;;;;;1897814;74;21163;-69
2021/04/06 12:55:16;;;;;;;12.07;3.95;;;7.60;99.90;;;;;;1898786;74;21203;-68
2021/04/06 12:57:44;;;;;;;14.83;3.42;;;7.60;99.90;;;;;;1898694;74;21179;-68
2021/04/06 13:00:13;;;;;;;12.55;2.77;;;7.70;99.90;;;;;;1896764;74;22306;-69
2021/04/06 13:02:40;;;;;;;11.93;3.12;;;7.80;99.90;;;;;;1901569;74;21094;-68
2021/04/06 13:05:08;;;;;;;12.95;3.20;;;7.90;99.90;;;;;;1900630;74;21074;-68
2021/04/06 13:07:37;;;;;;;12.28;3.00;;;7.90;99.90;;;;;;1901124;74;22214;-68